sensor_id;sensor_type;location;lat;lon;timestamp;P1;durP1;ratioP1;P2;durP2;ratioP2
78508;SDS011;67802;50.846;7.958;2024-01-15T00:01:11;4.37;;;1.70;;
78508;SDS011;67802;50.846;7.958;2024-01-15T00:03:36;3.90;;;1.40;;
78508;SDS011;67802;50.846;7.958;2024-01-15T00:06:01;3.45;;;1.45;;
78508;SDS011;67802;50.846;7.958;2024-01-15T00:08:27;3.45;;;1.40;;
78508;SDS011;67802;50.846;7.958;2024-01-15T00:10:52;3.60;;;1.50;;
78508;SDS011;67802;50.846;7.958;2024-01-15T00:13:17;3.40;;;1.40;;
78508;SDS011;67802;50.846;7.958;2024-01-15T00:15:43;3.40;;;1.50;;
78508;SDS011;67802;50.846;7.958;2024-01-15T00:18:08;3.38;;;1.40;;
78508;SDS011;67802;50.846;7.958;2024-01-15T00:20:34;3.80;;;1.45;;
78508;SDS011;67802;50.846;7.958;2024-01-15T00:22:59;3.47;;;1.40;;
78508;SDS011;67802;50.846;7.958;2024-01-15T00:25:25;2.85;;;1.30;;
78508;SDS011;67802;50.846;7.958;2024-01-15T00:27:50;2.87;;;1.23;;
78508;SDS011;67802;50.846;7.958;2024-01-15T00:30:15;3.30;;;1.55;;
78508;SDS011;67802;50.846;7.958;2024-01-15T00:32:40;2.65;;;1.20;;
78508;SDS011;67802;50.846;7.958;2024-01-15T00:35:06;2.57;;;1.20;;
78508;SDS011;67802;50.846;7.958;2024-01-15T00:37:31;3.08;;;1.48;;
78508;SDS011;67802;50.846;7.958;2024-01-15T00:39:57;3.53;;;1.40;;
78508;SDS011;67802;50.846;7.958;2024-01-15T00:42:22;3.80;;;1.50;;
78508;SDS011;67802;50.846;7.958;2024-01-15T00:44:47;3.50;;;1.30;;
78508;SDS011;67802;50.846;7.958;2024-01-15T00:47:13;3.45;;;1.50;;
78508;SDS011;67802;50.846;7.958;2024-01-15T00:49:38;3.63;;;1.50;;
78508;SDS011;67802;50.846;7.958;2024-01-15T00:52:03;3.60;;;1.50;;
78508;SDS011;67802;50.846;7.958;2024-01-15T00:54:29;3.10;;;1.40;;
78508;SDS011;67802;50.846;7.958;2024-01-15T00:56:54;3.67;;;1.60;;
78508;SDS011;67802;50.846;7.958;2024-01-15T00:59:20;2.65;;;1.20;;
78508;SDS011;67802;50.846;7.958;2024-01-15T01:01:45;3.25;;;1.42;;
78508;SDS011;67802;50.846;7.958;2024-01-15T01:04:11;3.75;;;1.63;;
78508;SDS011;67802;50.846;7.958;2024-01-15T01:06:37;3.55;;;1.52;;
78508;SDS011;67802;50.846;7.958;2024-01-15T01:09:02;3.38;;;1.40;;
78508;SDS011;67802;50.846;7.958;2024-01-15T01:11:28;3.20;;;1.45;;
78508;SDS011;67802;50.846;7.958;2024-01-15T01:13:53;4.47;;;1.67;;
78508;SDS011;67802;50.846;7.958;2024-01-15T01:16:18;3.65;;;1.50;;
78508;SDS011;67802;50.846;7.958;2024-01-15T01:18:44;3.83;;;1.60;;
78508;SDS011;67802;50.846;7.958;2024-01-15T01:21:09;3.10;;;1.30;;
78508;SDS011;67802;50.846;7.958;2024-01-15T01:23:34;3.67;;;1.50;;
78508;SDS011;67802;50.846;7.958;2024-01-15T01:25:59;4.00;;;1.60;;
78508;SDS011;67802;50.846;7.958;2024-01-15T01:28:25;3.40;;;1.30;;
78508;SDS011;67802;50.846;7.958;2024-01-15T01:30:50;3.58;;;1.42;;
78508;SDS011;67802;50.846;7.958;2024-01-15T01:33:15;3.55;;;1.48;;
78508;SDS011;67802;50.846;7.958;2024-01-15T01:35:41;3.70;;;1.60;;
78508;SDS011;67802;50.846;7.958;2024-01-15T01:38:06;3.92;;;1.48;;
78508;SDS011;67802;50.846;7.958;2024-01-15T01:40:31;3.65;;;1.52;;
78508;SDS011;67802;50.846;7.958;2024-01-15T01:42:57;3.15;;;1.30;;
78508;SDS011;67802;50.846;7.958;2024-01-15T01:45:22;3.58;;;1.58;;
78508;SDS011;67802;50.846;7.958;2024-01-15T01:47:47;3.30;;;1.50;;
78508;SDS011;67802;50.846;7.958;2024-01-15T01:50:13;3.22;;;1.50;;
78508;SDS011;67802;50.846;7.958;2024-01-15T01:52:39;4.13;;;1.80;;
78508;SDS011;67802;50.846;7.958;2024-01-15T01:55:05;4.22;;;1.58;;
78508;SDS011;67802;50.846;7.958;2024-01-15T01:57:32;3.10;;;1.40;;
78508;SDS011;67802;50.846;7.958;2024-01-15T01:59:59;4.10;;;1.70;;
78508;SDS011;67802;50.846;7.958;2024-01-15T02:02:26;3.60;;;1.42;;
78508;SDS011;67802;50.846;7.958;2024-01-15T02:04:51;3.45;;;1.50;;
78508;SDS011;67802;50.846;7.958;2024-01-15T02:07:17;4.00;;;1.60;;
78508;SDS011;67802;50.846;7.958;2024-01-15T02:09:43;3.58;;;1.70;;
78508;SDS011;67802;50.846;7.958;2024-01-15T02:12:09;4.32;;;1.40;;
78508;SDS011;67802;50.846;7.958;2024-01-15T02:14:35;3.75;;;1.60;;
78508;SDS011;67802;50.846;7.958;2024-01-15T02:17:01;3.60;;;1.63;;
78508;SDS011;67802;50.846;7.958;2024-01-15T02:19:26;3.67;;;1.60;;
78508;SDS011;67802;50.846;7.958;2024-01-15T02:21:51;3.67;;;1.52;;
78508;SDS011;67802;50.846;7.958;2024-01-15T02:24:17;3.33;;;1.48;;
78508;SDS011;67802;50.846;7.958;2024-01-15T02:26:42;3.60;;;1.38;;
78508;SDS011;67802;50.846;7.958;2024-01-15T02:29:08;3.47;;;1.55;;
78508;SDS011;67802;50.846;7.958;2024-01-15T02:31:34;3.67;;;1.40;;
78508;SDS011;67802;50.846;7.958;2024-01-15T02:34:01;4.03;;;1.77;;
78508;SDS011;67802;50.846;7.958;2024-01-15T02:36:26;3.67;;;1.65;;
78508;SDS011;67802;50.846;7.958;2024-01-15T02:38:51;2.88;;;1.30;;
78508;SDS011;67802;50.846;7.958;2024-01-15T02:41:17;4.10;;;1.60;;
78508;SDS011;67802;50.846;7.958;2024-01-15T02:43:42;3.47;;;1.45;;
78508;SDS011;67802;50.846;7.958;2024-01-15T02:46:07;4.22;;;1.70;;
78508;SDS011;67802;50.846;7.958;2024-01-15T02:48:33;3.58;;;1.77;;
78508;SDS011;67802;50.846;7.958;2024-01-15T02:51:00;4.28;;;1.63;;
78508;SDS011;67802;50.846;7.958;2024-01-15T02:53:25;4.07;;;1.70;;
78508;SDS011;67802;50.846;7.958;2024-01-15T02:55:51;4.50;;;1.95;;
78508;SDS011;67802;50.846;7.958;2024-01-15T02:58:16;4.07;;;1.60;;
78508;SDS011;67802;50.846;7.958;2024-01-15T03:00:41;3.90;;;1.80;;
78508;SDS011;67802;50.846;7.958;2024-01-15T03:03:07;4.30;;;1.80;;
78508;SDS011;67802;50.846;7.958;2024-01-15T03:05:33;4.22;;;1.70;;
78508;SDS011;67802;50.846;7.958;2024-01-15T03:07:58;4.13;;;1.65;;
78508;SDS011;67802;50.846;7.958;2024-01-15T03:10:23;3.65;;;1.83;;
78508;SDS011;67802;50.846;7.958;2024-01-15T03:12:49;3.95;;;1.60;;
78508;SDS011;67802;50.846;7.958;2024-01-15T03:15:14;3.70;;;1.63;;
78508;SDS011;67802;50.846;7.958;2024-01-15T03:17:41;3.65;;;1.70;;
78508;SDS011;67802;50.846;7.958;2024-01-15T03:20:07;3.90;;;1.63;;
78508;SDS011;67802;50.846;7.958;2024-01-15T03:22:33;4.10;;;1.60;;
78508;SDS011;67802;50.846;7.958;2024-01-15T03:24:58;4.13;;;1.73;;
78508;SDS011;67802;50.846;7.958;2024-01-15T03:27:24;3.53;;;1.45;;
78508;SDS011;67802;50.846;7.958;2024-01-15T03:29:50;4.30;;;1.90;;
78508;SDS011;67802;50.846;7.958;2024-01-15T03:32:16;3.75;;;1.98;;
78508;SDS011;67802;50.846;7.958;2024-01-15T03:34:41;3.65;;;1.60;;
78508;SDS011;67802;50.846;7.958;2024-01-15T03:37:06;4.53;;;2.00;;
78508;SDS011;67802;50.846;7.958;2024-01-15T03:39:32;4.93;;;2.17;;
78508;SDS011;67802;50.846;7.958;2024-01-15T03:41:57;4.30;;;1.90;;
78508;SDS011;67802;50.846;7.958;2024-01-15T03:44:23;3.40;;;1.60;;
78508;SDS011;67802;50.846;7.958;2024-01-15T03:46:48;4.25;;;1.80;;
78508;SDS011;67802;50.846;7.958;2024-01-15T03:49:13;4.68;;;1.88;;
78508;SDS011;67802;50.846;7.958;2024-01-15T03:51:38;4.30;;;2.00;;
78508;SDS011;67802;50.846;7.958;2024-01-15T03:54:04;4.50;;;1.77;;
78508;SDS011;67802;50.846;7.958;2024-01-15T03:56:29;4.38;;;1.83;;
78508;SDS011;67802;50.846;7.958;2024-01-15T03:58:55;4.22;;;1.60;;
78508;SDS011;67802;50.846;7.958;2024-01-15T04:01:20;3.60;;;1.58;;
78508;SDS011;67802;50.846;7.958;2024-01-15T04:03:45;4.13;;;1.80;;
78508;SDS011;67802;50.846;7.958;2024-01-15T04:06:10;3.38;;;1.65;;
78508;SDS011;67802;50.846;7.958;2024-01-15T04:08:36;4.13;;;1.70;;
78508;SDS011;67802;50.846;7.958;2024-01-15T04:11:01;4.43;;;1.90;;
78508;SDS011;67802;50.846;7.958;2024-01-15T04:13:27;5.03;;;2.03;;
78508;SDS011;67802;50.846;7.958;2024-01-15T04:15:52;3.92;;;1.50;;
78508;SDS011;67802;50.846;7.958;2024-01-15T04:18:17;4.45;;;1.88;;
78508;SDS011;67802;50.846;7.958;2024-01-15T04:20:43;4.53;;;1.83;;
78508;SDS011;67802;50.846;7.958;2024-01-15T04:23:08;3.30;;;1.50;;
78508;SDS011;67802;50.846;7.958;2024-01-15T04:25:34;4.22;;;2.00;;
78508;SDS011;67802;50.846;7.958;2024-01-15T04:27:59;3.92;;;1.70;;
78508;SDS011;67802;50.846;7.958;2024-01-15T04:30:24;4.10;;;1.80;;
78508;SDS011;67802;50.846;7.958;2024-01-15T04:32:50;4.15;;;1.58;;
78508;SDS011;67802;50.846;7.958;2024-01-15T04:35:15;4.10;;;1.70;;
78508;SDS011;67802;50.846;7.958;2024-01-15T04:37:40;3.97;;;1.65;;
78508;SDS011;67802;50.846;7.958;2024-01-15T04:40:06;4.70;;;2.03;;
78508;SDS011;67802;50.846;7.958;2024-01-15T04:42:32;4.28;;;1.90;;
78508;SDS011;67802;50.846;7.958;2024-01-15T04:44:57;3.65;;;1.60;;
78508;SDS011;67802;50.846;7.958;2024-01-15T04:47:23;3.80;;;1.60;;
78508;SDS011;67802;50.846;7.958;2024-01-15T04:49:48;4.65;;;1.95;;
78508;SDS011;67802;50.846;7.958;2024-01-15T04:52:14;3.95;;;1.90;;
78508;SDS011;67802;50.846;7.958;2024-01-15T04:54:39;4.60;;;2.10;;
78508;SDS011;67802;50.846;7.958;2024-01-15T04:57:05;4.60;;;2.07;;
78508;SDS011;67802;50.846;7.958;2024-01-15T04:59:30;4.05;;;1.70;;
78508;SDS011;67802;50.846;7.958;2024-01-15T05:01:56;4.15;;;1.85;;
78508;SDS011;67802;50.846;7.958;2024-01-15T05:04:22;4.10;;;1.85;;
78508;SDS011;67802;50.846;7.958;2024-01-15T05:06:47;3.47;;;1.50;;
78508;SDS011;67802;50.846;7.958;2024-01-15T05:09:12;5.43;;;1.98;;
78508;SDS011;67802;50.846;7.958;2024-01-15T05:11:38;3.63;;;1.70;;
78508;SDS011;67802;50.846;7.958;2024-01-15T05:14:04;3.95;;;1.83;;
78508;SDS011;67802;50.846;7.958;2024-01-15T05:16:29;4.13;;;1.83;;
78508;SDS011;67802;50.846;7.958;2024-01-15T05:18:54;4.65;;;1.80;;
78508;SDS011;67802;50.846;7.958;2024-01-15T05:21:20;4.25;;;1.80;;
78508;SDS011;67802;50.846;7.958;2024-01-15T05:23:45;4.82;;;1.90;;
78508;SDS011;67802;50.846;7.958;2024-01-15T05:26:10;5.03;;;1.70;;
78508;SDS011;67802;50.846;7.958;2024-01-15T05:28:36;4.43;;;1.95;;
78508;SDS011;67802;50.846;7.958;2024-01-15T05:31:01;5.18;;;2.10;;
78508;SDS011;67802;50.846;7.958;2024-01-15T05:33:26;5.13;;;2.20;;
78508;SDS011;67802;50.846;7.958;2024-01-15T05:35:52;3.72;;;1.70;;
78508;SDS011;67802;50.846;7.958;2024-01-15T05:38:18;4.30;;;1.70;;
78508;SDS011;67802;50.846;7.958;2024-01-15T05:40:44;3.13;;;1.80;;
78508;SDS011;67802;50.846;7.958;2024-01-15T05:43:09;4.07;;;1.77;;
78508;SDS011;67802;50.846;7.958;2024-01-15T05:45:35;4.53;;;1.77;;
78508;SDS011;67802;50.846;7.958;2024-01-15T05:48:03;4.70;;;2.17;;
78508;SDS011;67802;50.846;7.958;2024-01-15T05:50:28;4.28;;;1.80;;
78508;SDS011;67802;50.846;7.958;2024-01-15T05:52:54;3.83;;;1.70;;
78508;SDS011;67802;50.846;7.958;2024-01-15T05:55:19;4.53;;;1.80;;
78508;SDS011;67802;50.846;7.958;2024-01-15T05:57:45;3.97;;;1.70;;
78508;SDS011;67802;50.846;7.958;2024-01-15T06:00:10;4.68;;;2.10;;
78508;SDS011;67802;50.846;7.958;2024-01-15T06:02:39;4.25;;;1.92;;
78508;SDS011;67802;50.846;7.958;2024-01-15T06:05:05;4.53;;;2.08;;
78508;SDS011;67802;50.846;7.958;2024-01-15T06:07:31;4.10;;;1.80;;
78508;SDS011;67802;50.846;7.958;2024-01-15T06:09:57;4.97;;;1.90;;
78508;SDS011;67802;50.846;7.958;2024-01-15T06:12:22;4.13;;;1.80;;
78508;SDS011;67802;50.846;7.958;2024-01-15T06:14:48;4.38;;;2.10;;
78508;SDS011;67802;50.846;7.958;2024-01-15T06:17:13;4.75;;;1.80;;
78508;SDS011;67802;50.846;7.958;2024-01-15T06:19:39;4.47;;;1.73;;
78508;SDS011;67802;50.846;7.958;2024-01-15T06:22:04;4.15;;;1.70;;
78508;SDS011;67802;50.846;7.958;2024-01-15T06:24:29;5.03;;;2.10;;
78508;SDS011;67802;50.846;7.958;2024-01-15T06:26:55;4.72;;;2.00;;
78508;SDS011;67802;50.846;7.958;2024-01-15T06:29:20;4.15;;;2.08;;
78508;SDS011;67802;50.846;7.958;2024-01-15T06:31:46;4.20;;;1.85;;
78508;SDS011;67802;50.846;7.958;2024-01-15T06:34:11;4.88;;;2.28;;
78508;SDS011;67802;50.846;7.958;2024-01-15T06:36:37;4.55;;;2.00;;
78508;SDS011;67802;50.846;7.958;2024-01-15T06:39:02;5.18;;;1.88;;
78508;SDS011;67802;50.846;7.958;2024-01-15T06:41:27;4.05;;;1.70;;
78508;SDS011;67802;50.846;7.958;2024-01-15T06:43:53;3.97;;;1.70;;
78508;SDS011;67802;50.846;7.958;2024-01-15T06:46:21;4.68;;;1.90;;
78508;SDS011;67802;50.846;7.958;2024-01-15T06:48:48;4.55;;;1.90;;
78508;SDS011;67802;50.846;7.958;2024-01-15T06:51:13;5.05;;;1.90;;
78508;SDS011;67802;50.846;7.958;2024-01-15T06:53:39;3.75;;;1.77;;
78508;SDS011;67802;50.846;7.958;2024-01-15T06:56:04;4.63;;;2.05;;
78508;SDS011;67802;50.846;7.958;2024-01-15T06:58:32;4.57;;;1.80;;
78508;SDS011;67802;50.846;7.958;2024-01-15T07:00:58;4.10;;;1.80;;
78508;SDS011;67802;50.846;7.958;2024-01-15T07:03:24;5.07;;;2.00;;
78508;SDS011;67802;50.846;7.958;2024-01-15T07:05:49;5.15;;;2.15;;
78508;SDS011;67802;50.846;7.958;2024-01-15T07:08:15;4.57;;;1.90;;
78508;SDS011;67802;50.846;7.958;2024-01-15T07:10:40;4.72;;;2.10;;
78508;SDS011;67802;50.846;7.958;2024-01-15T07:13:05;4.25;;;1.83;;
78508;SDS011;67802;50.846;7.958;2024-01-15T07:15:31;3.85;;;1.67;;
78508;SDS011;67802;50.846;7.958;2024-01-15T07:17:56;4.65;;;1.95;;
78508;SDS011;67802;50.846;7.958;2024-01-15T07:20:21;4.32;;;1.90;;
78508;SDS011;67802;50.846;7.958;2024-01-15T07:22:47;4.32;;;1.80;;
78508;SDS011;67802;50.846;7.958;2024-01-15T07:25:12;4.13;;;1.63;;
78508;SDS011;67802;50.846;7.958;2024-01-15T07:27:38;4.57;;;1.90;;
78508;SDS011;67802;50.846;7.958;2024-01-15T07:30:03;4.28;;;1.80;;
78508;SDS011;67802;50.846;7.958;2024-01-15T07:32:30;4.20;;;1.65;;
78508;SDS011;67802;50.846;7.958;2024-01-15T07:34:56;3.90;;;1.80;;
78508;SDS011;67802;50.846;7.958;2024-01-15T07:37:22;4.38;;;1.90;;
78508;SDS011;67802;50.846;7.958;2024-01-15T07:39:48;4.13;;;1.80;;
78508;SDS011;67802;50.846;7.958;2024-01-15T07:42:14;4.63;;;1.95;;
78508;SDS011;67802;50.846;7.958;2024-01-15T07:44:39;3.85;;;1.70;;
78508;SDS011;67802;50.846;7.958;2024-01-15T07:47:04;3.50;;;1.60;;
78508;SDS011;67802;50.846;7.958;2024-01-15T07:49:30;4.22;;;1.70;;
78508;SDS011;67802;50.846;7.958;2024-01-15T07:51:55;5.93;;;2.03;;
78508;SDS011;67802;50.846;7.958;2024-01-15T07:54:20;4.53;;;1.80;;
78508;SDS011;67802;50.846;7.958;2024-01-15T07:56:55;3.92;;;1.60;;
78508;SDS011;67802;50.846;7.958;2024-01-15T07:59:24;3.85;;;1.52;;
78508;SDS011;67802;50.846;7.958;2024-01-15T08:01:50;3.92;;;1.67;;
78508;SDS011;67802;50.846;7.958;2024-01-15T08:04:16;3.75;;;1.67;;
78508;SDS011;67802;50.846;7.958;2024-01-15T08:06:41;4.10;;;1.50;;
78508;SDS011;67802;50.846;7.958;2024-01-15T08:09:07;4.30;;;1.80;;
78508;SDS011;67802;50.846;7.958;2024-01-15T08:11:33;3.83;;;1.50;;
78508;SDS011;67802;50.846;7.958;2024-01-15T08:13:59;4.03;;;1.67;;
78508;SDS011;67802;50.846;7.958;2024-01-15T08:16:24;3.77;;;1.70;;
78508;SDS011;67802;50.846;7.958;2024-01-15T08:18:50;3.90;;;1.63;;
78508;SDS011;67802;50.846;7.958;2024-01-15T08:21:15;3.17;;;1.48;;
78508;SDS011;67802;50.846;7.958;2024-01-15T08:23:41;3.92;;;1.80;;
78508;SDS011;67802;50.846;7.958;2024-01-15T08:26:07;4.00;;;1.67;;
78508;SDS011;67802;50.846;7.958;2024-01-15T08:28:32;3.88;;;1.60;;
78508;SDS011;67802;50.846;7.958;2024-01-15T08:30:57;3.25;;;1.30;;
78508;SDS011;67802;50.846;7.958;2024-01-15T08:33:23;3.85;;;1.77;;
78508;SDS011;67802;50.846;7.958;2024-01-15T08:35:48;3.70;;;1.58;;
78508;SDS011;67802;50.846;7.958;2024-01-15T08:38:13;3.53;;;1.45;;
78508;SDS011;67802;50.846;7.958;2024-01-15T08:40:39;4.07;;;1.48;;
78508;SDS011;67802;50.846;7.958;2024-01-15T08:43:04;3.90;;;1.50;;
78508;SDS011;67802;50.846;7.958;2024-01-15T08:45:31;3.35;;;1.30;;
78508;SDS011;67802;50.846;7.958;2024-01-15T08:47:57;3.05;;;1.40;;
78508;SDS011;67802;50.846;7.958;2024-01-15T08:50:22;3.20;;;1.38;;
78508;SDS011;67802;50.846;7.958;2024-01-15T08:52:47;4.20;;;1.65;;
78508;SDS011;67802;50.846;7.958;2024-01-15T08:55:12;3.93;;;1.50;;
78508;SDS011;67802;50.846;7.958;2024-01-15T08:57:38;3.10;;;1.30;;
78508;SDS011;67802;50.846;7.958;2024-01-15T09:00:03;2.97;;;1.40;;
78508;SDS011;67802;50.846;7.958;2024-01-15T09:02:33;3.67;;;1.50;;
78508;SDS011;67802;50.846;7.958;2024-01-15T09:04:58;3.28;;;1.35;;
78508;SDS011;67802;50.846;7.958;2024-01-15T09:07:24;3.70;;;1.50;;
78508;SDS011;67802;50.846;7.958;2024-01-15T09:09:50;3.25;;;1.27;;
78508;SDS011;67802;50.846;7.958;2024-01-15T09:12:15;2.95;;;1.40;;
78508;SDS011;67802;50.846;7.958;2024-01-15T09:14:41;3.30;;;1.52;;
78508;SDS011;67802;50.846;7.958;2024-01-15T09:17:06;4.27;;;1.50;;
78508;SDS011;67802;50.846;7.958;2024-01-15T09:19:32;2.70;;;1.30;;
78508;SDS011;67802;50.846;7.958;2024-01-15T09:21:57;3.57;;;1.20;;
78508;SDS011;67802;50.846;7.958;2024-01-15T09:24:22;2.57;;;1.23;;
78508;SDS011;67802;50.846;7.958;2024-01-15T09:26:48;3.20;;;1.30;;
78508;SDS011;67802;50.846;7.958;2024-01-15T09:29:13;2.73;;;1.30;;
78508;SDS011;67802;50.846;7.958;2024-01-15T09:31:40;3.08;;;1.30;;
78508;SDS011;67802;50.846;7.958;2024-01-15T09:34:06;2.75;;;1.20;;
78508;SDS011;67802;50.846;7.958;2024-01-15T09:36:31;3.25;;;1.30;;
78508;SDS011;67802;50.846;7.958;2024-01-15T09:38:57;3.40;;;1.33;;
78508;SDS011;67802;50.846;7.958;2024-01-15T09:41:22;2.72;;;1.10;;
78508;SDS011;67802;50.846;7.958;2024-01-15T09:43:48;3.10;;;1.20;;
78508;SDS011;67802;50.846;7.958;2024-01-15T09:46:14;2.53;;;1.10;;
78508;SDS011;67802;50.846;7.958;2024-01-15T09:48:40;3.22;;;1.30;;
78508;SDS011;67802;50.846;7.958;2024-01-15T09:51:05;3.78;;;1.40;;
78508;SDS011;67802;50.846;7.958;2024-01-15T09:53:32;3.40;;;1.30;;
78508;SDS011;67802;50.846;7.958;2024-01-15T09:55:58;3.42;;;1.33;;
78508;SDS011;67802;50.846;7.958;2024-01-15T09:58:24;1.73;;;0.90;;
78508;SDS011;67802;50.846;7.958;2024-01-15T10:00:50;2.40;;;1.10;;
78508;SDS011;67802;50.846;7.958;2024-01-15T10:03:16;2.10;;;1.10;;
78508;SDS011;67802;50.846;7.958;2024-01-15T10:05:42;2.60;;;1.20;;
78508;SDS011;67802;50.846;7.958;2024-01-15T10:08:08;2.88;;;1.33;;
78508;SDS011;67802;50.846;7.958;2024-01-15T10:10:36;3.15;;;1.40;;
78508;SDS011;67802;50.846;7.958;2024-01-15T10:13:01;2.85;;;1.40;;
78508;SDS011;67802;50.846;7.958;2024-01-15T10:15:28;2.72;;;1.23;;
78508;SDS011;67802;50.846;7.958;2024-01-15T10:17:54;2.33;;;1.10;;
78508;SDS011;67802;50.846;7.958;2024-01-15T10:20:19;3.15;;;1.40;;
78508;SDS011;67802;50.846;7.958;2024-01-15T10:22:47;2.50;;;1.10;;
78508;SDS011;67802;50.846;7.958;2024-01-15T10:25:13;2.67;;;1.10;;
78508;SDS011;67802;50.846;7.958;2024-01-15T10:27:39;3.25;;;1.40;;
78508;SDS011;67802;50.846;7.958;2024-01-15T10:30:06;2.78;;;1.20;;
78508;SDS011;67802;50.846;7.958;2024-01-15T10:32:32;3.20;;;1.30;;
78508;SDS011;67802;50.846;7.958;2024-01-15T10:34:57;2.65;;;1.20;;
78508;SDS011;67802;50.846;7.958;2024-01-15T10:37:24;2.75;;;1.30;;
78508;SDS011;67802;50.846;7.958;2024-01-15T10:39:49;2.83;;;1.10;;
78508;SDS011;67802;50.846;7.958;2024-01-15T10:42:15;2.87;;;1.13;;
78508;SDS011;67802;50.846;7.958;2024-01-15T10:44:41;2.63;;;1.17;;
78508;SDS011;67802;50.846;7.958;2024-01-15T10:47:08;3.03;;;1.33;;
78508;SDS011;67802;50.846;7.958;2024-01-15T10:49:33;3.10;;;1.40;;
78508;SDS011;67802;50.846;7.958;2024-01-15T10:52:00;2.88;;;1.20;;
78508;SDS011;67802;50.846;7.958;2024-01-15T10:54:27;3.10;;;1.30;;
78508;SDS011;67802;50.846;7.958;2024-01-15T10:56:52;3.33;;;1.15;;
78508;SDS011;67802;50.846;7.958;2024-01-15T10:59:19;2.78;;;1.17;;
78508;SDS011;67802;50.846;7.958;2024-01-15T11:01:47;3.03;;;1.20;;
78508;SDS011;67802;50.846;7.958;2024-01-15T11:04:13;2.78;;;1.40;;
78508;SDS011;67802;50.846;7.958;2024-01-15T11:06:43;2.17;;;1.10;;
78508;SDS011;67802;50.846;7.958;2024-01-15T11:09:10;3.00;;;1.30;;
78508;SDS011;67802;50.846;7.958;2024-01-15T11:11:40;2.53;;;1.25;;
78508;SDS011;67802;50.846;7.958;2024-01-15T11:14:05;3.08;;;1.30;;
78508;SDS011;67802;50.846;7.958;2024-01-15T11:19:21;3.00;;;1.30;;
78508;SDS011;67802;50.846;7.958;2024-01-15T11:21:47;3.30;;;1.20;;
78508;SDS011;67802;50.846;7.958;2024-01-15T11:24:12;2.70;;;1.17;;
78508;SDS011;67802;50.846;7.958;2024-01-15T11:27:01;3.40;;;1.30;;
78508;SDS011;67802;50.846;7.958;2024-01-15T11:34:20;2.60;;;1.00;;
78508;SDS011;67802;50.846;7.958;2024-01-15T11:41:55;2.00;;;1.05;;
78508;SDS011;67802;50.846;7.958;2024-01-15T11:44:21;3.00;;;1.27;;
78508;SDS011;67802;50.846;7.958;2024-01-15T11:47:00;2.80;;;1.15;;
78508;SDS011;67802;50.846;7.958;2024-01-15T11:52:21;2.45;;;1.13;;
78508;SDS011;67802;50.846;7.958;2024-01-15T11:55:47;3.38;;;1.27;;
78508;SDS011;67802;50.846;7.958;2024-01-15T11:57:50;2.47;;;1.10;;
78508;SDS011;67802;50.846;7.958;2024-01-15T12:00:19;1.80;;;1.00;;
78508;SDS011;67802;50.846;7.958;2024-01-15T12:02:46;2.45;;;1.05;;
78508;SDS011;67802;50.846;7.958;2024-01-15T12:05:13;1.23;;;0.82;;
78508;SDS011;67802;50.846;7.958;2024-01-15T12:07:40;2.55;;;1.10;;
78508;SDS011;67802;50.846;7.958;2024-01-15T12:10:12;1.65;;;0.90;;
78508;SDS011;67802;50.846;7.958;2024-01-15T12:15:29;2.20;;;0.95;;
78508;SDS011;67802;50.846;7.958;2024-01-15T12:17:55;2.15;;;1.00;;
78508;SDS011;67802;50.846;7.958;2024-01-15T12:20:27;2.40;;;1.00;;
78508;SDS011;67802;50.846;7.958;2024-01-15T12:22:55;1.88;;;0.90;;
78508;SDS011;67802;50.846;7.958;2024-01-15T12:25:24;2.20;;;1.05;;
78508;SDS011;67802;50.846;7.958;2024-01-15T12:27:52;1.60;;;0.90;;
78508;SDS011;67802;50.846;7.958;2024-01-15T12:30:17;1.65;;;0.90;;
78508;SDS011;67802;50.846;7.958;2024-01-15T12:32:43;2.22;;;0.93;;
78508;SDS011;67802;50.846;7.958;2024-01-15T12:35:12;1.30;;;0.73;;
78508;SDS011;67802;50.846;7.958;2024-01-15T12:37:39;1.05;;;0.70;;
78508;SDS011;67802;50.846;7.958;2024-01-15T12:40:05;1.60;;;0.88;;
78508;SDS011;67802;50.846;7.958;2024-01-15T12:42:32;2.60;;;0.98;;
78508;SDS011;67802;50.846;7.958;2024-01-15T12:44:59;1.10;;;0.68;;
78508;SDS011;67802;50.846;7.958;2024-01-15T12:47:25;1.92;;;0.90;;
78508;SDS011;67802;50.846;7.958;2024-01-15T12:49:51;2.08;;;0.90;;
78508;SDS011;67802;50.846;7.958;2024-01-15T12:52:20;1.35;;;0.73;;
78508;SDS011;67802;50.846;7.958;2024-01-15T12:54:49;1.52;;;0.90;;
78508;SDS011;67802;50.846;7.958;2024-01-15T12:57:15;1.85;;;0.90;;
78508;SDS011;67802;50.846;7.958;2024-01-15T12:59:41;1.02;;;0.70;;
78508;SDS011;67802;50.846;7.958;2024-01-15T13:02:06;2.17;;;0.90;;
78508;SDS011;67802;50.846;7.958;2024-01-15T13:04:31;1.50;;;0.75;;
78508;SDS011;67802;50.846;7.958;2024-01-15T13:06:57;1.50;;;0.80;;
78508;SDS011;67802;50.846;7.958;2024-01-15T13:09:22;1.10;;;0.70;;
78508;SDS011;67802;50.846;7.958;2024-01-15T13:11:47;0.77;;;0.70;;
78508;SDS011;67802;50.846;7.958;2024-01-15T13:14:13;1.58;;;0.65;;
78508;SDS011;67802;50.846;7.958;2024-01-15T13:16:39;1.20;;;0.70;;
78508;SDS011;67802;50.846;7.958;2024-01-15T13:19:06;1.23;;;0.82;;
78508;SDS011;67802;50.846;7.958;2024-01-15T13:21:32;1.38;;;0.70;;
78508;SDS011;67802;50.846;7.958;2024-01-15T13:23:57;1.30;;;0.77;;
78508;SDS011;67802;50.846;7.958;2024-01-15T13:26:22;1.03;;;0.70;;
78508;SDS011;67802;50.846;7.958;2024-01-15T13:28:47;0.70;;;0.70;;
78508;SDS011;67802;50.846;7.958;2024-01-15T13:31:14;1.23;;;0.63;;
78508;SDS011;67802;50.846;7.958;2024-01-15T13:33:39;2.40;;;0.70;;
78508;SDS011;67802;50.846;7.958;2024-01-15T13:36:05;0.80;;;0.70;;
78508;SDS011;67802;50.846;7.958;2024-01-15T13:38:35;1.17;;;0.70;;
78508;SDS011;67802;50.846;7.958;2024-01-15T13:41:02;1.27;;;0.60;;
78508;SDS011;67802;50.846;7.958;2024-01-15T13:43:27;1.35;;;0.75;;
78508;SDS011;67802;50.846;7.958;2024-01-15T13:45:53;1.55;;;0.70;;
78508;SDS011;67802;50.846;7.958;2024-01-15T13:48:19;1.00;;;0.70;;
78508;SDS011;67802;50.846;7.958;2024-01-15T13:50:45;2.58;;;0.90;;
78508;SDS011;67802;50.846;7.958;2024-01-15T13:53:10;0.75;;;0.60;;
78508;SDS011;67802;50.846;7.958;2024-01-15T13:55:36;1.13;;;0.50;;
78508;SDS011;67802;50.846;7.958;2024-01-15T13:58:01;1.17;;;0.70;;
78508;SDS011;67802;50.846;7.958;2024-01-15T14:00:28;1.13;;;0.70;;
78508;SDS011;67802;50.846;7.958;2024-01-15T14:02:54;0.95;;;0.63;;
78508;SDS011;67802;50.846;7.958;2024-01-15T14:05:19;1.47;;;0.73;;
78508;SDS011;67802;50.846;7.958;2024-01-15T14:07:45;1.20;;;0.70;;
78508;SDS011;67802;50.846;7.958;2024-01-15T14:10:10;1.43;;;0.70;;
78508;SDS011;67802;50.846;7.958;2024-01-15T14:12:35;2.08;;;0.80;;
78508;SDS011;67802;50.846;7.958;2024-01-15T14:15:04;1.27;;;0.80;;
78508;SDS011;67802;50.846;7.958;2024-01-15T14:17:30;1.15;;;0.70;;
78508;SDS011;67802;50.846;7.958;2024-01-15T14:19:56;1.47;;;0.67;;
78508;SDS011;67802;50.846;7.958;2024-01-15T14:22:21;2.13;;;0.90;;
78508;SDS011;67802;50.846;7.958;2024-01-15T14:24:46;2.03;;;0.80;;
78508;SDS011;67802;50.846;7.958;2024-01-15T14:27:11;1.93;;;0.80;;
78508;SDS011;67802;50.846;7.958;2024-01-15T14:29:37;1.10;;;0.70;;
78508;SDS011;67802;50.846;7.958;2024-01-15T14:32:03;1.33;;;0.70;;
78508;SDS011;67802;50.846;7.958;2024-01-15T14:34:28;1.42;;;0.80;;
78508;SDS011;67802;50.846;7.958;2024-01-15T14:36:54;3.90;;;0.80;;
78508;SDS011;67802;50.846;7.958;2024-01-15T14:39:20;0.95;;;0.77;;
78508;SDS011;67802;50.846;7.958;2024-01-15T14:41:45;2.03;;;0.68;;
78508;SDS011;67802;50.846;7.958;2024-01-15T14:44:11;1.25;;;0.80;;
78508;SDS011;67802;50.846;7.958;2024-01-15T14:46:37;1.25;;;0.70;;
78508;SDS011;67802;50.846;7.958;2024-01-15T14:49:02;1.33;;;0.70;;
78508;SDS011;67802;50.846;7.958;2024-01-15T14:51:28;1.75;;;0.70;;
78508;SDS011;67802;50.846;7.958;2024-01-15T14:53:53;1.33;;;0.60;;
78508;SDS011;67802;50.846;7.958;2024-01-15T14:56:19;1.90;;;0.90;;
78508;SDS011;67802;50.846;7.958;2024-01-15T14:58:45;1.88;;;0.90;;